Martes, 31 de Marzo del 2015

portal contactenos mapa del sitio buscar Revisar Correo Corporativo

|Reporte METAR por Reginal » ||Reporte TAF por Reginal » ||Reporte METAR, TAF y SIN覲TICO »

Reporte METAR por Regional

|| La Paz || Santa Cruz || Cochabamba || Beni - Pando ||

Informe METAR emitido cada hora.

Regional La Paz

ESTACIÓN

AEROPUERTO

HORA UTC

DESCRIPCIÓN

SLRY

Reyes

14-18S|67-21W

12:00

SLRY 311200Z 00000KT 9999 OVC013 24/23 Q1014 A2995 HR96 RWY OPR 1 100M=

SLRQ

Rurrenabaque

14-25S|67-29W

12:00

SLRQ 311200Z 00000KT 9999 FEW008 BKN015 BKN200 25/24 Q1013 A2994 HR97=

SLAP

Apolo

14-44S|68-24W

-

Mensaje no Recibido

SLSB

San Borja

14-51S|66-44W

12:00

SLSB 311200Z 35003KT 9999 SCT015 SCT070 26/25 Q1012 A2989 HR90 RWY NML=

SLLP

Internaci贸nal El Alto

16-08S|68-10W

12:00

SLLP 311200Z 09004KT 9999 FEW006 SCT070 BKN200 06/03 Q1039 A3069 629.0 P5341 HZ S/SW/W/NW HR82 NOSIG=

SLCN

Chara帽a

17-35S|69-25W

-

Mensaje no Recibido

SLOR

Oruro

17-57S|67-04W

12:00

SLOR 311200Z 00000KT 8000 NSC 05/M01 Q1037 A3064 657.7 FU/NE/SE/S CI HR65=

SLUY

Uyuni

20-27S|62-52W

12:00

SLUY 311200Z 00000KT 9999 NSC 05/00 Q1036 A3059 659.6 HR60=

Regional Cochabamba

ESTACIÓN

AEROPUERTO

HORA UTC

DESCRIPCIÓN

SLCB

Cochabamba

17-25S|66-10W

12:00

SLCB 311200Z 14003KT 8000 FEW027 SCT070 BKN200 14/09 Q1028 A3036 753.7 HR72 FU NOSIG=

SLSU

Sucre

19-00S|65-17W

12:00

SLSU 311200Z 03009KT 9999 FEW007 BKN010 12/12 Q1031 A3046 HR100 ST BAJOS NE/E/SW=

SLPO

Potos铆

19-32S|65-43W

12:00

SLPO 311200Z 24005KT 9999 SCT070 05/04 Q1041 A4074 HR93=

SLAG

Monteagudo

19-49S|63-58W

12:00

SLAG 311200Z 00000KT 9999 NSC 17/16 Q1020 A3012 HR95 CI RWY CLSD=

SLVM

Villamontes

21-15S|63-24W

12:00

SLVM 311200Z 00000KT 9999 FEW020 25/21 Q1014 A2994 HR77 AC=

SLTJ

Tarija

21-33S|64-42W

12:00

SLTJ 311200Z 00000KT 9999 SCT030 BKN070 18/15 Q1022 A3020 HR83=

SLYA

Yacuiba

21-57S|63-39W

12:00

SLYA 311200Z 18008KT 9999 FEW020 BKN070 23/20 Q1016 A3002 HR84=

SLBJ

Bermejo

22-46S|64-18W

12:00

SLBJ 311200Z 18006KT 9999 SCT015 OVC070 22/21 Q1013 A2991 HR95=

Regional Santa Cruz

ESTACIÓN

AEROPUERTO

HORA UTC

DESCRIPCIÓN

SLAS

Ascenci贸n de Guarayos

15-55S|63-09W

12:00

SLAS 311200Z 00000KT 9999 OVC012 24/23 Q1015 A2999 HR94 RWY NML =

SLCP

Concepci贸n

16-08S|62-01W

12:00

SLCP 311200Z 00000KT 9999 OVC004 23/23 Q1017 A3003 HR99 RWY NML =

SLJV

San Javier

16-16S|62-28W

12:00

SLJV 311200Z 00000KT 5000 -TSRA BKN008 FEW030CB OVC070 22/22 Q1014 A2994 HR100 CB/TS SW/W RWY WET OPR=

SLTI

San Mat铆as

16-20S|58-24W

12:00

SLTI 311200Z 00000KT 9999 SCT017 OVC070 26/25 Q1020 A3012 HR92 RWY NML=

SLSI

San Ignacio de Velasco

16-23S|60-57W

12:00

SLSI 311200Z 36005KT 9999 SCT010 BKN017 23/22 Q1015 A2997 HR95 RWY NML=

SLVR

Internaci贸nal Viru Viru

17-38S|63-08W

12:00

SLVR 311200Z 34010KT 9999 SCT004 OVC006 24/24 Q1014 A2996 HR98 NOSIG=

SLET

El Trompillo

17-48S|63-10W

12:00

SLET 311200Z 34012KT 9999 BKN006 BKN200 24/22 Q1013 A2993 HR89 NOSIG=

SLJE

San Jos茅 de Chiquitos

17-49S|60-44W

12:00

SLJE 311200Z 00000KT 9999 SCT015 OVC070 24/21 Q1017 A3003 HR84 RWY HUM OPR=

SLRB

Robor茅

18-19S|59-45W

12:00

SLRB 311200Z 00000KT 9999 SCT070 26/25 Q1015 A2997 HR91 RWY NML =

SLVG

Valle Grande

18-28S|64-05W

12:00

SLVG 311200Z 00000KT 9999 BKN015 BKN070 15/14 Q1026 A3030 HR95 RWY NML=

SLPS

Puerto Su谩rez

18-58S|57-49W

12:00

SLPS 311200Z 00000KT 9999 BKN070 28/23 Q1013 A2992 HR75=

SLCA

Camiri

20-00S|63-31W

12:00

SLCA 311200Z 00000KT 9999 SCT080 SCT200 20/18 Q1018 A3006 HR92 RWY NML=

Regional Beni

ESTACIÓN

AEROPUERTO

HORA UTC

DESCRIPCIÓN

SLGM

Guayaramer铆n

10-49S|65-20W

12:00

SLGM 311200Z 36004KT 8000 VCSH BKN004 OVC070 24/23 Q1013 A2994 HR96 SH W/NW=

SLRI

Riberalta

11-00S|66-04W

12:00

SLRI 311200Z 03005KT 9999 SCT004 BKN020 BKN070 23/23 Q1014 A2996 HR98=

SLCO

Cobija

11-02S|68-47W

12:00

SLCO 311200Z 36004KT 9999 BKN008 BKN070 25/24 Q1013 A2994 986.3 HR94=

SLJO

San Joaquin

13-03S|64-39W

12:00

SLJO 311200Z 00000KT 9999 FEW015 BKN080 24/23 Q1013 A2993 HR91 RWY NML=

SLMG

San Magdalena

13-15S|64-03W

12:00

SLMG 311200Z 00000KT 9999 FEW015 SCT080 BKN200 24/23 Q1013 A2992 HR95 RWY HUM OPR=

SLRA

San Ram贸n

13-15S|64-36W

12:00

SLRA 311200Z 32005KT 9999 FEW015 BKN080 24/23 Q1012 A2991 HR93 RWY NML=

SLBU

Baures

13-39S|63-42W

12:00

SLBU 311200Z 35004KT 9999 SCT080 BKN200 24/23 Q1013 A2994 HR94 RWY NML=

SLSA

Santa Ana de Yacuma

13-45S|65-26W

12:00

SLSA 311200Z 34006KT 9999 SCT012 SCT080 BKN200 25/24 Q1013 A2991 HR92=

SLSR

Santa Rosa

14-04S|66-47W

12:00

SLSR 311200Z 35004KT 9999 FEW015 SCT080 25/24 Q1010 A2985 HR92 RWY NML=

SLTR

Trinidad

14-49S|64-54W

12:00

SLTR 311200Z 36003KT 9999 FEW004 SCT070 BKN200 25/24 Q1013 A2994 995.2 HR93 NOSIG=

SLSM

San Ignacio de Moxos

14-57S|65-38W

12:00

SLSM 311200Z 00000KT 8000 VCSH BKN015 FEW023CB 25/24 Q1012 A2990 HR93 CB/SH S/SW RWY NML=